AMS weather

Public forecast

Using degrees Celsius for public forecast. Weather courtesy of forecast.io.

Current aviation weather report (METAR) for Amsterdam Airport Schiphol

Retrieved 2020/08/15 01:25 UTC (27 minutes ago):

EHAM 150125Z 26007KT 4000 BR SCT003 BKN004 20/19 Q1013 NOSIG

Aviation forecast (TAF) for Amsterdam Airport Schiphol

Retrieved 2020-08-15 00:31 UTC (1 hour ago):

TAF COR EHAM 142325Z 1500/1606 24005KT 2500 BR BKN004 BECMG 1502/1505 3500 BKN006 PROB30 TEMPO 1502/1506 1400 BKN002 BECMG 1506/1509 9999 NSW SCT020 BECMG 1512/1515 33005KT PROB30 TEMPO 1512/1520 VRB15G25KT 5000 SHRA TSRA SCT020CB BKN025 BECMG 1521/1524 VRB03KT 6000 MIFG PROB30 TEMPO 1523/1606 0800 BCFG